createdAt,value
2019-04-10T00:00:47.771Z,8.63
2019-04-10T00:03:25.716Z,7.03
2019-04-10T00:05:44.508Z,7.28
2019-04-10T00:08:12.311Z,7.75
2019-04-10T00:10:40.263Z,7.05
2019-04-10T00:13:07.797Z,5.82
2019-04-10T00:15:35.857Z,6.22
2019-04-10T00:18:05.299Z,8.63
2019-04-10T00:20:34.366Z,8.30
2019-04-10T00:23:02.523Z,5.20
2019-04-10T00:25:29.784Z,6.22
2019-04-10T00:27:59.043Z,8.27
2019-04-10T00:30:27.091Z,5.18
2019-04-10T00:32:56.350Z,6.10
2019-04-10T00:35:23.552Z,7.62
2019-04-10T00:37:51.712Z,6.32
2019-04-10T00:40:20.049Z,5.93
2019-04-10T00:42:48.153Z,6.10
2019-04-10T00:45:17.382Z,6.03
2019-04-10T00:47:45.483Z,6.37
2019-04-10T00:50:12.644Z,7.00
2019-04-10T00:52:40.703Z,4.97
2019-04-10T00:55:08.725Z,7.37
2019-04-10T00:57:37.383Z,6.80
2019-04-10T01:00:06.497Z,7.05
2019-04-10T01:02:34.605Z,7.80
2019-04-10T01:05:03.298Z,5.78
2019-04-10T01:07:36.700Z,7.62
2019-04-10T01:09:59.808Z,6.12
2019-04-10T01:12:27.977Z,6.55
2019-04-10T01:14:56.122Z,4.68
2019-04-10T01:17:24.319Z,6.65
2019-04-10T01:19:52.512Z,6.53
2019-04-10T01:22:21.477Z,7.30
2019-04-10T01:24:52.282Z,5.50
2019-04-10T01:27:20.498Z,8.70
2019-04-10T01:29:49.631Z,5.00
2019-04-10T01:32:18.061Z,7.82
2019-04-10T01:34:46.696Z,6.87
2019-04-10T01:37:15.330Z,6.50
2019-04-10T01:39:43.447Z,5.57
2019-04-10T01:42:12.252Z,7.68
2019-04-10T01:44:40.572Z,5.62
2019-04-10T01:47:07.844Z,5.97
2019-04-10T01:49:36.347Z,5.82
2019-04-10T01:52:04.901Z,5.37
2019-04-10T01:54:33.352Z,8.43
2019-04-10T01:57:00.897Z,8.30
2019-04-10T01:59:29.933Z,5.62
2019-04-10T02:02:16.894Z,6.60
2019-04-10T02:04:44.851Z,6.53
2019-04-10T02:07:13.882Z,4.22
2019-04-10T02:09:42.131Z,6.72
2019-04-10T02:12:10.405Z,5.05
2019-04-10T02:14:38.637Z,6.82
2019-04-10T02:17:06.584Z,7.25
2019-04-10T02:19:36.450Z,5.37
2019-04-10T02:22:04.941Z,4.72
2019-04-10T02:24:33.787Z,7.37
2019-04-10T02:27:02.476Z,6.68
2019-04-10T02:29:31.483Z,6.47
2019-04-10T02:31:59.819Z,7.03
2019-04-10T02:34:28.390Z,5.90
2019-04-10T02:36:55.477Z,6.77
2019-04-10T02:39:31.350Z,6.97
2019-04-10T02:41:52.288Z,7.43
2019-04-10T02:44:20.527Z,6.85
2019-04-10T02:46:47.559Z,4.43
2019-04-10T02:49:16.429Z,7.18
2019-04-10T02:51:45.342Z,6.15
2019-04-10T02:54:13.703Z,5.00
2019-04-10T02:56:41.054Z,4.37
2019-04-10T02:59:09.409Z,5.40
2019-04-10T03:01:38.026Z,6.30
2019-04-10T03:04:09.005Z,4.47
2019-04-10T03:06:35.381Z,3.00
2019-04-10T03:09:21.186Z,4.20
2019-04-10T03:11:31.299Z,3.63
2019-04-10T03:13:59.268Z,3.17
2019-04-10T03:16:27.130Z,3.00
2019-04-10T03:18:54.905Z,4.43
2019-04-10T03:21:22.789Z,3.03
2019-04-10T03:23:50.701Z,4.97
2019-04-10T03:26:18.935Z,3.43
2019-04-10T03:28:47.223Z,4.30
2019-04-10T03:31:15.694Z,2.97
2019-04-10T03:33:56.198Z,4.73
2019-04-10T03:36:24.343Z,3.20
2019-04-10T03:38:58.778Z,5.25
2019-04-10T03:41:20.001Z,4.77
2019-04-10T03:43:48.606Z,4.40
2019-04-10T03:46:17.226Z,3.37
2019-04-10T03:48:45.222Z,3.20
2019-04-10T03:51:14.420Z,3.47
2019-04-10T03:53:42.493Z,3.30
2019-04-10T03:56:09.679Z,3.93
2019-04-10T03:58:38.203Z,2.50
2019-04-10T04:01:06.911Z,3.58
2019-04-10T04:03:34.968Z,3.27
2019-04-10T04:06:02.009Z,2.00
2019-04-10T04:08:30.110Z,2.60
2019-04-10T04:10:59.205Z,2.73
2019-04-10T04:13:26.548Z,3.90
2019-04-10T04:15:54.760Z,3.10
2019-04-10T04:18:22.895Z,3.03
2019-04-10T04:20:51.360Z,2.93
2019-04-10T04:23:19.461Z,2.80
2019-04-10T04:25:48.393Z,3.10
2019-04-10T04:28:16.862Z,3.53
2019-04-10T04:30:44.268Z,2.57
2019-04-10T04:33:12.995Z,3.53
2019-04-10T04:35:40.833Z,2.17
2019-04-10T04:38:09.250Z,2.03
2019-04-10T04:40:37.668Z,3.40
2019-04-10T04:43:05.596Z,2.40
2019-04-10T04:45:33.357Z,2.43
2019-04-10T04:48:00.552Z,2.57
2019-04-10T04:50:29.269Z,2.43
2019-04-10T04:52:56.818Z,2.83
2019-04-10T04:55:27.465Z,3.70
2019-04-10T04:57:55.804Z,2.20
2019-04-10T05:00:23.994Z,2.83
2019-04-10T05:02:53.681Z,2.47
2019-04-10T05:05:23.012Z,2.57
2019-04-10T05:07:59.458Z,3.03
2019-04-10T05:10:20.881Z,2.13
2019-04-10T05:12:49.502Z,2.70
2019-04-10T05:15:16.630Z,2.03
2019-04-10T05:17:44.988Z,1.90
2019-04-10T05:20:12.628Z,2.57
2019-04-10T05:22:41.646Z,3.07
2019-04-10T05:25:09.084Z,2.77
2019-04-10T05:27:39.245Z,2.97
2019-04-10T05:30:06.820Z,3.67
2019-04-10T05:32:35.394Z,3.80
2019-04-10T05:35:05.810Z,3.13
2019-04-10T05:37:31.622Z,2.30
2019-04-10T05:39:59.266Z,2.40
2019-04-10T05:42:26.882Z,3.50
2019-04-10T05:44:56.442Z,3.00
2019-04-10T05:47:23.195Z,2.10
2019-04-10T05:49:50.942Z,3.22
2019-04-10T05:52:20.241Z,1.93
2019-04-10T05:54:47.343Z,2.83
2019-04-10T05:57:15.878Z,3.28
2019-04-10T05:59:43.973Z,2.80
2019-04-10T06:02:11.292Z,2.72
2019-04-10T06:04:39.406Z,2.45
2019-04-10T06:07:08.527Z,2.37
2019-04-10T06:09:36.584Z,3.00
2019-04-10T06:12:04.176Z,2.92
2019-04-10T06:14:32.409Z,1.92
2019-04-10T06:17:02.785Z,2.70
2019-04-10T06:19:28.838Z,3.30
2019-04-10T06:21:56.574Z,2.70
2019-04-10T06:24:24.781Z,3.05
2019-04-10T06:26:53.887Z,3.70
2019-04-10T06:29:23.256Z,3.20
2019-04-10T06:31:50.314Z,3.28
2019-04-10T06:34:18.784Z,2.87
2019-04-10T06:36:46.441Z,3.62
2019-04-10T06:39:14.502Z,2.53
2019-04-10T06:41:43.164Z,3.80
2019-04-10T06:44:10.571Z,2.92
2019-04-10T06:46:39.381Z,2.35
2019-04-10T06:49:07.820Z,2.42
2019-04-10T06:51:35.420Z,4.35
2019-04-10T06:54:06.975Z,3.60
2019-04-10T06:56:31.273Z,3.17
2019-04-10T06:58:58.504Z,2.30
2019-04-10T07:01:39.026Z,1.83
2019-04-10T07:04:02.282Z,2.67
2019-04-10T07:06:26.704Z,2.80
2019-04-10T07:08:53.388Z,2.10
2019-04-10T07:11:21.694Z,3.80
2019-04-10T07:13:46.978Z,2.28
2019-04-10T07:16:15.970Z,2.55
2019-04-10T07:18:45.845Z,3.50
2019-04-10T07:21:12.492Z,3.10
2019-04-10T07:23:39.380Z,2.90
2019-04-10T07:26:07.663Z,2.97
2019-04-10T07:28:37.816Z,3.20
2019-04-10T07:31:08.104Z,2.30
2019-04-10T07:33:32.948Z,2.28
2019-04-10T07:36:04.243Z,2.97
2019-04-10T07:38:29.400Z,3.17
2019-04-10T07:40:58.777Z,3.08
2019-04-10T07:43:28.916Z,2.65
2019-04-10T07:45:56.767Z,3.42
2019-04-10T07:48:23.279Z,2.95
2019-04-10T07:50:51.605Z,3.60
2019-04-10T07:53:19.465Z,2.87
2019-04-10T07:55:58.460Z,2.83
2019-04-10T07:58:19.402Z,3.42
2019-04-10T08:00:47.037Z,3.00
2019-04-10T08:03:16.717Z,4.03
2019-04-10T08:05:46.317Z,3.50
2019-04-10T08:08:17.074Z,3.00
2019-04-10T08:10:45.161Z,3.85
2019-04-10T08:13:14.106Z,4.30
2019-04-10T08:15:41.503Z,3.33
2019-04-10T08:18:10.133Z,3.10
2019-04-10T08:20:38.204Z,3.72
2019-04-10T08:23:07.922Z,4.10
2019-04-10T08:25:35.404Z,4.57
2019-04-10T08:28:03.179Z,4.45
2019-04-10T08:30:32.283Z,3.85
2019-04-10T08:33:03.209Z,3.97
2019-04-10T08:35:31.495Z,3.12
2019-04-10T08:37:59.262Z,3.33
2019-04-10T08:40:27.862Z,2.87
2019-04-10T08:42:55.763Z,2.90
2019-04-10T08:45:23.672Z,2.97
2019-04-10T08:47:52.907Z,3.72
2019-04-10T08:50:20.239Z,2.92
2019-04-10T08:52:48.799Z,4.68
2019-04-10T08:55:17.727Z,4.70
2019-04-10T08:57:45.815Z,3.15
2019-04-10T09:00:13.558Z,4.47
2019-04-10T09:02:42.341Z,3.22
2019-04-10T09:05:11.161Z,2.87
2019-04-10T09:07:38.383Z,4.35
2019-04-10T09:10:06.948Z,3.85
2019-04-10T09:12:34.697Z,4.32
2019-04-10T09:15:03.028Z,4.03
2019-04-10T09:17:31.427Z,3.00
2019-04-10T09:20:00.464Z,3.58
2019-04-10T09:22:27.499Z,4.18
2019-04-10T09:24:56.909Z,4.20
2019-04-10T09:27:26.752Z,5.35
2019-04-10T09:29:54.162Z,3.85
2019-04-10T09:32:22.296Z,4.50
2019-04-10T09:34:51.988Z,5.28
2019-04-10T09:37:19.099Z,4.45
2019-04-10T09:39:50.579Z,3.62
2019-04-10T09:42:17.151Z,3.70
2019-04-10T09:44:44.821Z,5.43
2019-04-10T09:47:12.949Z,5.70
2019-04-10T09:49:45.854Z,5.18
2019-04-10T09:52:08.747Z,4.62
2019-04-10T09:54:36.844Z,4.90
2019-04-10T09:57:05.008Z,4.97
2019-04-10T09:59:36.952Z,4.12
2019-04-10T10:02:02.725Z,4.62
2019-04-10T10:04:31.279Z,5.07
2019-04-10T10:06:59.813Z,5.20
2019-04-10T10:09:29.073Z,2.95
2019-04-10T10:11:55.522Z,5.12
2019-04-10T10:14:23.832Z,5.15
2019-04-10T10:16:52.602Z,5.37
2019-04-10T10:19:20.294Z,5.55
2019-04-10T10:21:48.496Z,5.05
2019-04-10T10:24:16.946Z,4.93
2019-04-10T10:26:46.493Z,5.68
2019-04-10T10:29:13.339Z,5.53
2019-04-10T10:31:40.793Z,5.30
2019-04-10T10:34:10.179Z,5.18
2019-04-10T10:36:41.878Z,4.18
2019-04-10T10:39:12.693Z,4.50
2019-04-10T10:41:35.510Z,3.35
2019-04-10T10:44:03.346Z,3.08
2019-04-10T10:46:31.492Z,5.57
2019-04-10T10:49:00.067Z,4.40
2019-04-10T10:51:28.900Z,5.10
2019-04-10T10:53:56.670Z,5.50
2019-04-10T10:56:24.555Z,6.05
2019-04-10T10:58:53.177Z,5.37
2019-04-10T11:01:20.633Z,5.53
2019-04-10T11:03:49.004Z,5.10
2019-04-10T11:06:17.845Z,3.95
2019-04-10T11:08:45.818Z,6.30
2019-04-10T11:11:12.781Z,5.12
2019-04-10T11:13:41.004Z,5.87
2019-04-10T11:16:09.275Z,5.25
2019-04-10T11:18:37.988Z,5.87
2019-04-10T11:21:08.889Z,5.60
2019-04-10T11:23:34.162Z,3.58
2019-04-10T11:26:02.324Z,4.60
2019-04-10T11:28:31.622Z,5.05
2019-04-10T11:30:58.634Z,3.90
2019-04-10T11:33:26.320Z,3.62
2019-04-10T11:35:55.220Z,3.65
2019-04-10T11:38:25.658Z,4.00
2019-04-10T11:40:54.751Z,3.35
2019-04-10T11:43:21.571Z,3.40
2019-04-10T11:48:18.660Z,3.80
2019-04-10T11:50:46.146Z,4.28
2019-04-10T11:53:14.438Z,4.18
2019-04-10T11:55:46.897Z,5.12
2019-04-10T11:58:13.787Z,3.60
2019-04-10T12:00:45.391Z,3.37
2019-04-10T12:03:08.799Z,5.05
2019-04-10T12:05:36.636Z,3.62
2019-04-10T12:08:27.909Z,2.70
2019-04-10T12:12:59.842Z,4.60
2019-04-10T12:15:28.137Z,4.37
2019-04-10T12:17:55.408Z,5.75
2019-04-10T12:20:23.474Z,4.93
2019-04-10T12:22:52.430Z,3.22
2019-04-10T12:25:20.866Z,3.00
2019-04-10T12:27:48.094Z,3.55
2019-04-10T12:30:17.312Z,3.33
2019-04-10T12:32:45.958Z,4.03
2019-04-10T12:35:13.694Z,2.92
2019-04-10T12:37:41.247Z,3.97
2019-04-10T12:40:10.214Z,5.03
2019-04-10T12:42:38.727Z,4.93
2019-04-10T12:45:08.105Z,3.65
2019-04-10T12:47:34.920Z,2.95
2019-04-10T12:50:03.775Z,3.35
2019-04-10T12:52:31.098Z,4.32
2019-04-10T12:54:59.602Z,3.97
2019-04-10T12:57:27.316Z,4.45
2019-04-10T13:00:01.538Z,4.57
2019-04-10T13:02:24.318Z,4.43
2019-04-10T13:04:52.570Z,3.45
2019-04-10T13:07:21.243Z,4.37
2019-04-10T13:09:48.573Z,4.35
2019-04-10T13:12:17.538Z,4.87
2019-04-10T13:14:46.451Z,3.97
2019-04-10T13:17:14.310Z,4.22
2019-04-10T13:19:41.279Z,3.22
2019-04-10T13:22:09.556Z,3.35
2019-04-10T13:24:37.549Z,4.43
2019-04-10T13:27:06.176Z,4.20
2019-04-10T13:29:34.327Z,4.95
2019-04-10T13:32:01.964Z,4.30
2019-04-10T13:34:30.105Z,4.05
2019-04-10T13:36:58.178Z,4.68
2019-04-10T13:39:26.686Z,5.75
2019-04-10T13:41:55.068Z,5.28
2019-04-10T13:44:24.483Z,5.03
2019-04-10T13:46:51.937Z,3.08
2019-04-10T13:49:19.939Z,4.35
2019-04-10T13:51:47.699Z,4.25
2019-04-10T13:54:16.533Z,4.68
2019-04-10T13:56:43.681Z,4.32
2019-04-10T13:59:13.794Z,3.75
2019-04-10T14:01:40.084Z,4.10
2019-04-10T14:04:09.161Z,3.50
2019-04-10T14:06:37.990Z,4.18
2019-04-10T14:09:21.361Z,4.18
2019-04-10T14:11:35.363Z,2.62
2019-04-10T14:14:04.420Z,3.30
2019-04-10T14:16:31.033Z,2.87
2019-04-10T14:18:59.289Z,4.03
2019-04-10T14:21:27.198Z,3.55
2019-04-10T14:23:55.611Z,3.28
2019-04-10T14:26:48.923Z,3.20
2019-04-10T14:29:16.412Z,4.75
2019-04-10T14:31:49.010Z,2.40
2019-04-10T14:34:18.435Z,3.40
2019-04-10T14:36:44.415Z,3.15
2019-04-10T14:39:17.512Z,3.08
2019-04-10T14:41:40.508Z,3.67
2019-04-10T14:44:10.195Z,2.75
2019-04-10T14:46:38.083Z,3.30
2019-04-10T14:49:06.986Z,2.95
2019-04-10T14:51:34.715Z,3.30
2019-04-10T14:54:03.655Z,2.15
2019-04-10T14:56:30.987Z,2.50
2019-04-10T14:58:59.596Z,2.35
2019-04-10T15:01:26.819Z,3.30
2019-04-10T15:03:55.011Z,4.05
2019-04-10T15:06:23.427Z,3.53
2019-04-10T15:08:50.637Z,2.17
2019-04-10T15:11:19.102Z,2.12
2019-04-10T15:13:47.195Z,3.42
2019-04-10T15:16:15.372Z,2.37
2019-04-10T15:18:43.804Z,3.67
2019-04-10T15:21:12.388Z,3.22
2019-04-10T15:23:39.872Z,2.05
2019-04-10T15:26:08.267Z,2.70
2019-04-10T15:28:36.325Z,2.92
2019-04-10T15:31:04.413Z,2.25
2019-04-10T15:33:32.910Z,2.58
2019-04-10T15:36:01.941Z,3.83
2019-04-10T15:38:30.296Z,1.83
2019-04-10T15:40:57.334Z,3.70
2019-04-10T15:43:26.382Z,2.65
2019-04-10T15:45:54.608Z,2.62
2019-04-10T15:48:22.990Z,2.35
2019-04-10T15:50:51.731Z,2.40
2019-04-10T15:53:18.804Z,2.72
2019-04-10T15:55:47.581Z,2.75
2019-04-10T15:58:14.999Z,3.20
2019-04-10T16:00:43.550Z,2.20
2019-04-10T16:03:11.315Z,1.95
2019-04-10T16:05:39.744Z,1.87
2019-04-10T16:08:07.841Z,2.45
2019-04-10T16:10:41.862Z,1.95
2019-04-10T16:13:18.270Z,3.20
2019-04-10T16:15:47.051Z,2.17
2019-04-10T16:18:18.956Z,2.28
2019-04-10T16:20:47.294Z,2.62
2019-04-10T16:23:35.626Z,1.65
2019-04-10T16:26:03.443Z,2.83
2019-04-10T16:28:31.564Z,2.17
2019-04-10T16:31:00.022Z,1.83
2019-04-10T16:33:29.433Z,2.42
2019-04-10T16:35:56.948Z,1.75
2019-04-10T16:38:25.028Z,3.25
2019-04-10T16:40:54.192Z,2.67
2019-04-10T16:43:22.323Z,3.20
2019-04-10T16:45:49.131Z,2.50
2019-04-10T16:48:17.330Z,3.37
2019-04-10T16:50:45.665Z,1.98
2019-04-10T16:53:14.166Z,2.58
2019-04-10T16:55:43.083Z,1.73
2019-04-10T16:58:10.108Z,2.03
2019-04-10T17:00:38.229Z,2.85
2019-04-10T17:03:06.359Z,1.92
2019-04-10T17:05:35.188Z,1.98
2019-04-10T17:08:03.646Z,1.98
2019-04-10T17:10:30.776Z,3.15
2019-04-10T17:13:00.230Z,2.10
2019-04-10T17:15:28.219Z,2.47
2019-04-10T17:17:55.525Z,2.83
2019-04-10T17:20:24.571Z,2.50
2019-04-10T17:22:52.099Z,2.30
2019-04-10T17:25:20.266Z,2.20
2019-04-10T17:27:48.194Z,1.92
2019-04-10T17:30:16.388Z,1.77
2019-04-10T17:32:44.750Z,1.52
2019-04-10T17:35:13.605Z,1.80
2019-04-10T17:37:42.132Z,1.62
2019-04-10T17:40:08.869Z,1.92
2019-04-10T17:42:38.167Z,2.25
2019-04-10T17:45:06.513Z,2.37
2019-04-10T17:47:33.797Z,2.60
2019-04-10T17:50:03.741Z,1.90
2019-04-10T17:52:34.696Z,2.22
2019-04-10T17:55:00.956Z,1.77
2019-04-10T17:57:35.244Z,1.58
2019-04-10T17:59:56.673Z,2.05
2019-04-10T18:02:25.461Z,2.10
2019-04-10T18:04:53.934Z,1.48
2019-04-10T18:07:21.754Z,2.33
2019-04-10T18:09:49.008Z,2.20
2019-04-10T18:12:17.103Z,2.20
2019-04-10T18:14:45.204Z,1.87
2019-04-10T18:17:14.368Z,2.58
2019-04-10T18:19:41.999Z,1.95
2019-04-10T18:22:10.127Z,1.37
2019-04-10T18:24:38.076Z,1.73
2019-04-10T18:27:06.511Z,1.65
2019-04-10T18:29:35.061Z,2.35
2019-04-10T18:32:02.769Z,3.00
2019-04-10T18:34:30.758Z,2.45
2019-04-10T18:36:58.845Z,2.03
2019-04-10T18:39:27.229Z,1.70
2019-04-10T18:41:56.143Z,1.45
2019-04-10T18:44:24.704Z,1.67
2019-04-10T18:46:52.193Z,1.92
2019-04-10T18:49:19.705Z,2.15
2019-04-10T18:51:48.480Z,1.70
2019-04-10T18:54:16.569Z,2.08
2019-04-10T18:56:45.126Z,2.47
2019-04-10T18:59:19.070Z,1.80
2019-04-10T19:02:05.043Z,1.65
2019-04-10T19:04:39.128Z,1.55
2019-04-10T19:07:07.074Z,1.08
2019-04-10T19:09:36.661Z,1.33
2019-04-10T19:12:04.436Z,2.12
2019-04-10T19:14:34.986Z,1.85
2019-04-10T19:17:00.405Z,1.92
2019-04-10T19:19:28.259Z,2.22
2019-04-10T19:21:56.102Z,2.70
2019-04-10T19:24:24.224Z,2.00
2019-04-10T19:26:53.805Z,2.47
2019-04-10T19:29:21.387Z,2.58
2019-04-10T19:31:52.694Z,2.08
2019-04-10T19:34:21.239Z,1.58
2019-04-10T19:36:50.165Z,1.58
2019-04-10T19:39:18.183Z,2.97
2019-04-10T19:41:46.896Z,1.75
2019-04-10T19:44:14.858Z,1.77
2019-04-10T19:46:41.974Z,1.87
2019-04-10T19:49:10.368Z,1.75
2019-04-10T19:51:38.626Z,2.10
2019-04-10T19:54:08.979Z,1.95
2019-04-10T19:56:35.387Z,1.90
2019-04-10T19:59:03.992Z,2.12
2019-04-10T20:01:32.256Z,1.87
2019-04-10T20:04:01.913Z,2.67
2019-04-10T20:06:30.039Z,1.58
2019-04-10T20:08:57.870Z,2.40
2019-04-10T20:11:35.898Z,1.60
2019-04-10T20:13:54.626Z,1.50
2019-04-10T20:16:21.504Z,2.30
2019-04-10T20:18:50.725Z,1.92
2019-04-10T20:21:17.743Z,1.58
2019-04-10T20:23:45.999Z,1.55
2019-04-10T20:26:14.745Z,1.95
2019-04-10T20:28:42.082Z,1.85
2019-04-10T20:31:13.426Z,1.30
2019-04-10T20:33:42.985Z,1.37
2019-04-10T20:36:10.987Z,2.12
2019-04-10T20:38:38.771Z,1.23
2019-04-10T20:41:06.593Z,1.48
2019-04-10T20:43:33.810Z,2.15
2019-04-10T20:46:02.142Z,0.95
2019-04-10T20:48:30.646Z,1.10
2019-04-10T20:50:58.763Z,1.37
2019-04-10T20:53:26.275Z,1.08
2019-04-10T20:55:55.692Z,1.23
2019-04-10T20:58:23.877Z,1.77
2019-04-10T21:00:52.014Z,1.77
2019-04-10T21:03:20.392Z,1.48
2019-04-10T21:05:48.688Z,2.03
2019-04-10T21:08:17.795Z,1.70
2019-04-10T21:10:45.121Z,1.77
2019-04-10T21:13:13.082Z,2.12
2019-04-10T21:15:42.239Z,2.33
2019-04-10T21:18:09.569Z,2.50
2019-04-10T21:20:37.715Z,1.83
2019-04-10T21:23:05.788Z,3.17
2019-04-10T21:25:35.092Z,2.37
2019-04-10T21:28:02.740Z,1.57
2019-04-10T21:30:52.914Z,2.20
2019-04-10T21:33:42.934Z,1.80
2019-04-10T21:36:11.382Z,1.60
2019-04-10T21:38:38.896Z,2.42
2019-04-10T21:41:08.712Z,2.05
2019-04-10T21:43:34.631Z,2.05
2019-04-10T21:46:03.700Z,1.62
2019-04-10T21:48:30.962Z,2.03
2019-04-10T21:50:58.700Z,2.00
2019-04-10T21:53:26.919Z,2.53
2019-04-10T21:55:55.760Z,2.15
2019-04-10T21:58:24.139Z,2.22
2019-04-10T22:01:09.822Z,2.05
2019-04-10T22:03:37.953Z,1.67
2019-04-10T22:06:13.449Z,1.92
2019-04-10T22:08:49.979Z,2.27
2019-04-10T22:11:17.197Z,2.28
2019-04-10T22:17:00.299Z,3.22
2019-04-10T22:19:28.456Z,2.22
2019-04-10T22:21:56.030Z,2.00
2019-04-10T22:24:25.518Z,2.47
2019-04-10T22:26:54.288Z,2.80
2019-04-10T22:29:21.830Z,1.60
2019-04-10T22:31:51.314Z,2.03
2019-04-10T22:34:19.181Z,2.03
2019-04-10T22:36:47.263Z,3.10
2019-04-10T22:39:16.816Z,1.60
2019-04-10T22:41:46.110Z,2.03
2019-04-10T22:44:13.860Z,2.60
2019-04-10T22:46:42.570Z,2.53
2019-04-10T22:49:10.413Z,3.30
2019-04-10T22:51:39.748Z,2.40
2019-04-10T22:54:08.062Z,3.97
2019-04-10T22:56:35.720Z,3.00
2019-04-10T22:59:03.971Z,2.70
2019-04-10T23:01:33.421Z,2.20
2019-04-10T23:04:01.669Z,3.53
2019-04-10T23:06:29.161Z,3.20
2019-04-10T23:08:56.302Z,3.60
2019-04-10T23:11:32.185Z,2.47
2019-04-10T23:13:54.252Z,2.97
2019-04-10T23:16:22.180Z,3.37
2019-04-10T23:18:49.807Z,1.90
2019-04-10T23:21:18.631Z,2.90
2019-04-10T23:23:47.332Z,3.30
2019-04-10T23:26:14.857Z,3.80
2019-04-10T23:28:43.937Z,2.63
2019-04-10T23:31:10.949Z,3.50
2019-04-10T23:33:39.805Z,3.67
2019-04-10T23:36:07.660Z,3.87
2019-04-10T23:38:35.400Z,2.70
2019-04-10T23:41:03.290Z,3.92
2019-04-10T23:43:31.575Z,2.00
2019-04-10T23:46:00.179Z,3.00
2019-04-10T23:48:28.743Z,3.77
2019-04-10T23:50:56.630Z,3.57
2019-04-10T23:53:24.670Z,3.90
2019-04-10T23:55:52.788Z,3.87
2019-04-10T23:58:22.118Z,4.30
